Time;durP1;ratioP1;P1;durP2;ratioP2;P2;SDS_P1;SDS_P2;PMS_P1;PMS_P2;Temp;Humidity;BMP_temperature;BMP_pressure;BME280_temperature;BME280_humidity;BME280_pressure;Samples;Min_cycle;Max_cycle;Signal;HPM_P1;HPM_P2
2022/12/23 00:01:00;;;;;;;59.10;41.40;;;13.20;99.90;;;;;;5032216;28;20045;-67
2022/12/23 00:04:04;;;;;;;58.45;38.38;;;13.30;99.90;;;;;;5032062;28;20049;-67
2022/12/23 00:07:07;;;;;;;47.17;35.03;;;13.30;99.90;;;;;;5032094;28;20040;-67
2022/12/23 00:10:11;;;;;;;53.15;37.78;;;13.30;99.90;;;;;;5030797;28;20057;-67
2022/12/23 00:16:39;;;;;;;55.50;39.58;;;13.30;99.90;;;;;;5031730;28;20048;-67
2022/12/23 00:19:43;;;;;;;54.92;39.25;;;13.40;99.90;;;;;;5031694;28;20048;-67
2022/12/23 00:23:05;;;;;;;54.92;36.40;;;13.30;99.90;;;;;;5031650;28;20389;-67
2022/12/23 00:26:21;;;;;;;45.95;35.95;;;13.40;99.90;;;;;;5030224;28;20036;-67
2022/12/23 00:29:25;;;;;;;47.28;34.30;;;13.40;99.90;;;;;;5031208;28;20056;-67
2022/12/23 00:32:29;;;;;;;45.17;33.45;;;13.40;99.90;;;;;;5031275;28;20306;-67
2022/12/23 00:35:33;;;;;;;45.10;33.58;;;13.40;99.90;;;;;;5031399;28;20052;-67
2022/12/23 00:45:22;;;;;;;48.75;35.45;;;13.50;99.90;;;;;;5031458;28;20512;-67
2022/12/23 00:51:48;;;;;;;47.60;35.67;;;14.30;99.90;;;;;;5030911;28;20044;-67
2022/12/23 00:54:52;;;;;;;56.63;36.15;;;13.30;99.90;;;;;;5031505;28;20104;-67
2022/12/23 00:57:56;;;;;;;51.00;38.03;;;13.30;99.90;;;;;;5030872;28;20060;-67
2022/12/23 01:07:45;;;;;;;52.03;37.13;;;13.20;99.90;;;;;;5030916;28;20049;-66
2022/12/23 01:10:48;;;;;;;51.78;37.25;;;13.20;99.90;;;;;;5031161;28;20048;-66
2022/12/23 01:13:53;;;;;;;48.55;37.35;;;13.20;99.90;;;;;;5031107;28;20041;-66
2022/12/23 01:16:57;;;;;;;54.80;39.35;;;13.20;99.90;;;;;;5030959;28;20228;-66
2022/12/23 01:20:00;;;;;;;51.90;39.47;;;13.20;99.90;;;;;;5030894;28;20429;-67
2022/12/23 01:23:04;;;;;;;58.88;41.45;;;13.00;99.90;;;;;;5030954;28;20049;-66
2022/12/23 01:26:09;;;;;;;61.53;43.15;;;13.20;99.90;;;;;;5030835;28;20041;-66
2022/12/23 01:29:13;;;;;;;64.72;45.60;;;13.10;99.90;;;;;;5030731;28;20060;-66
2022/12/23 01:32:18;;;;;;;71.80;49.97;;;;;;;;;;5030562;28;20052;-67
2022/12/23 01:35:21;;;;;;;65.45;47.90;;;13.00;99.90;;;;;;5030737;28;20044;-67
2022/12/23 01:38:25;;;;;;;69.40;50.70;;;12.80;99.90;;;;;;5030526;28;20064;-66
2022/12/23 01:44:55;;;;;;;74.57;51.92;;;12.80;99.90;;;;;;5041296;28;20409;-66
2022/12/23 01:48:11;;;;;;;71.25;49.72;;;12.80;99.90;;;;;;5030301;28;20057;-67
2022/12/23 01:51:25;;;;;;;66.93;49.95;;;12.90;99.90;;;;;;5030640;28;20052;-67
2022/12/23 01:54:30;;;;;;;69.22;49.85;;;13.00;99.90;;;;;;5034677;28;20303;-66
2022/12/23 01:57:37;;;;;;;69.10;49.13;;;12.40;99.90;;;;;;5034650;28;20056;-66
2022/12/23 02:04:14;;;;;;;65.70;48.88;;;12.80;99.90;;;;;;5034402;28;20036;-66
2022/12/23 02:11:20;;;;;;;64.28;48.25;;;13.00;99.90;;;;;;5034352;28;20060;-67
2022/12/23 02:18:18;;;;;;;65.28;47.78;;;12.90;99.90;;;;;;5034020;28;20045;-66
2022/12/23 02:21:44;;;;;;;66.22;47.47;;;12.90;99.90;;;;;;5034151;28;20390;-66
2022/12/23 02:24:53;;;;;;;63.67;47.80;;;16.10;99.90;;;;;;5034012;28;20041;-66
2022/12/23 02:28:45;;;;;;;63.97;46.13;;;15.50;99.90;;;;;;5033772;28;20037;-66
2022/12/23 02:32:21;;;;;;;63.22;44.70;;;13.00;99.90;;;;;;5033956;28;20052;-66
2022/12/23 02:35:41;;;;;;;64.20;47.17;;;9.70;99.90;;;;;;5034079;28;20048;-68
2022/12/23 02:39:13;;;;;;;60.03;46.53;;;13.80;99.90;;;;;;5033511;28;20064;-68
2022/12/23 02:42:21;;;;;;;58.42;42.10;;;13.30;99.90;;;;;;5033758;28;20264;-68
2022/12/23 02:45:53;;;;;;;53.00;40.90;;;13.20;99.90;;;;;;5033374;28;20040;-68
2022/12/23 02:49:12;;;;;;;58.67;42.80;;;14.80;99.90;;;;;;5025779;28;20444;-67
2022/12/23 02:52:19;;;;;;;51.10;40.45;;;15.90;99.90;;;;;;5033644;28;20144;-68
2022/12/23 02:55:30;;;;;;;57.72;40.65;;;13.00;99.90;;;;;;5033103;28;20528;-68
2022/12/23 02:58:40;;;;;;;51.58;37.63;;;13.10;99.90;;;;;;5033540;28;20241;-68
2022/12/23 03:01:46;;;;;;;48.20;37.30;;;13.60;99.90;;;;;;5033432;28;20053;-67
2022/12/23 03:04:50;;;;;;;54.50;37.88;;;13.10;99.90;;;;;;5032301;28;20045;-68
2022/12/23 03:07:58;;;;;;;48.35;36.88;;;13.10;99.90;;;;;;5033372;28;20057;-68
2022/12/23 03:11:06;;;;;;;49.30;37.00;;;13.10;99.90;;;;;;5033042;28;20076;-68
2022/12/23 03:14:47;;;;;;;52.53;37.15;;;14.20;99.90;;;;;;5033636;28;20037;-68
2022/12/23 03:17:51;;;;;;;50.23;36.90;;;11.50;99.90;;;;;;5032979;28;20115;-68
2022/12/23 03:21:20;;;;;;;51.88;36.47;;;13.10;99.90;;;;;;5033042;28;20276;-68
2022/12/23 03:24:30;;;;;;;46.05;35.60;;;13.10;99.90;;;;;;5033227;28;20071;-66
2022/12/23 03:27:45;;;;;;;48.65;36.45;;;13.00;99.90;;;;;;5032633;28;20401;-66
2022/12/23 03:30:53;;;;;;;51.83;36.97;;;13.00;99.90;;;;;;5032790;28;20056;-68
2022/12/23 03:34:04;;;;;;;45.45;33.83;;;14.30;99.90;;;;;;5032960;28;20052;-66
2022/12/23 03:37:13;;;;;;;53.67;36.78;;;13.00;99.90;;;;;;5032806;28;20045;-67
2022/12/23 03:40:28;;;;;;;48.53;33.88;;;12.30;99.90;;;;;;5032661;28;20057;-68
2022/12/23 03:43:39;;;;;;;44.97;33.65;;;13.00;99.90;;;;;;5032657;28;20044;-68
2022/12/23 03:46:51;;;;;;;44.65;33.40;;;13.10;99.90;;;;;;5032411;28;20040;-67
2022/12/23 03:49:59;;;;;;;52.00;35.25;;;13.10;99.90;;;;;;5032296;28;20060;-68
2022/12/23 03:53:34;;;;;;;43.05;34.00;;;12.30;99.90;;;;;;5032348;28;20045;-68
2022/12/23 03:56:44;;;;;;;47.53;35.45;;;10.00;99.90;;;;;;5031873;28;20052;-68
2022/12/23 03:59:50;;;;;;;43.13;33.22;;;12.40;99.90;;;;;;5032236;28;20567;-68
2022/12/23 04:03:16;;;;;;;46.88;34.60;;;13.10;99.90;;;;;;5032015;28;20418;-66
2022/12/23 04:06:23;;;;;;;48.78;35.47;;;12.90;99.90;;;;;;5032363;28;20048;-68
2022/12/23 04:09:28;;;;;;;45.42;34.25;;;12.80;99.90;;;;;;5032102;28;20053;-66
2022/12/23 04:12:32;;;;;;;46.65;35.58;;;10.40;99.90;;;;;;5031637;28;20040;-67
2022/12/23 04:15:40;;;;;;;46.88;34.78;;;12.90;99.90;;;;;;5031649;28;20048;-66
2022/12/23 04:18:44;;;;;;;45.75;34.17;;;13.10;99.90;;;;;;5031584;28;20515;-67
2022/12/23 04:21:48;;;;;;;48.92;35.35;;;14.40;99.90;;;;;;5032042;28;20048;-67
2022/12/23 04:24:52;;;;;;;48.42;35.00;;;13.00;99.90;;;;;;5032014;28;20107;-67
2022/12/23 04:27:56;;;;;;;47.30;35.33;;;13.00;99.90;;;;;;5031704;28;20048;-67
2022/12/23 04:31:00;;;;;;;50.67;36.17;;;;;;;;;;5031502;28;20080;-67
2022/12/23 04:34:04;;;;;;;50.60;35.65;;;13.10;99.90;;;;;;5031936;28;20057;-67
2022/12/23 04:37:09;;;;;;;47.75;36.78;;;12.90;99.90;;;;;;5031586;28;20052;-67
2022/12/23 04:40:13;;;;;;;48.70;36.15;;;14.10;99.90;;;;;;5031651;28;20056;-67
2022/12/23 04:43:17;;;;;;;49.67;36.33;;;12.90;99.90;;;;;;5032035;28;20500;-68
2022/12/23 04:46:21;;;;;;;53.58;37.83;;;;;;;;;;5031226;28;20061;-68
2022/12/23 04:49:25;;;;;;;52.45;37.72;;;13.00;99.90;;;;;;5031324;28;20055;-68
2022/12/23 04:52:29;;;;;;;47.53;37.22;;;13.00;99.90;;;;;;5031657;28;20048;-67
2022/12/23 04:55:33;;;;;;;47.67;35.88;;;;;;;;;;5031215;28;20064;-68
2022/12/23 04:58:37;;;;;;;61.00;38.25;;;9.10;99.90;;;;;;5031029;28;20057;-68
2022/12/23 05:01:42;;;;;;;46.13;37.67;;;;;;;;;;5031431;28;20048;-68
2022/12/23 05:04:45;;;;;;;48.30;35.92;;;13.90;99.90;;;;;;5031139;28;20119;-68
2022/12/23 05:07:49;;;;;;;53.72;37.05;;;;;;;;;;5030814;28;20052;-68
2022/12/23 05:10:54;;;;;;;57.45;39.35;;;12.70;99.90;;;;;;5030912;28;20523;-68
2022/12/23 05:13:59;;;;;;;53.00;38.97;;;;;;;;;;5031286;28;20500;-68
2022/12/23 05:17:04;;;;;;;56.03;39.90;;;12.70;99.90;;;;;;5030778;28;20393;-68
2022/12/23 05:20:08;;;;;;;55.47;40.00;;;12.90;99.90;;;;;;5031386;28;20045;-68
2022/12/23 05:23:13;;;;;;;53.15;38.85;;;;;;;;;;5031261;28;20048;-68
2022/12/23 05:26:17;;;;;;;63.05;42.35;;;14.00;99.90;;;;;;5030560;28;20048;-68
2022/12/23 05:29:21;;;;;;;57.53;40.10;;;;;;;;;;5030993;28;20401;-68
2022/12/23 05:32:25;;;;;;;52.78;38.88;;;14.40;99.90;;;;;;5031360;28;20045;-67
2022/12/23 05:35:29;;;;;;;53.65;40.83;;;;;;;;;;5030731;28;20068;-66
2022/12/23 05:38:33;;;;;;;58.97;42.85;;;12.70;99.90;;;;;;5030525;28;20041;-68
2022/12/23 05:41:37;;;;;;;54.15;41.72;;;16.10;99.90;;;;;;5030894;28;20048;-66
2022/12/23 05:44:41;;;;;;;54.17;39.65;;;;;;;;;;5030505;28;20056;-67
2022/12/23 05:47:46;;;;;;;55.67;39.97;;;;;;;;;;5030720;28;20109;-68
2022/12/23 05:50:51;;;;;;;52.85;39.58;;;12.00;99.90;;;;;;5030484;28;20409;-68
2022/12/23 05:53:55;;;;;;;52.78;39.58;;;11.90;99.90;;;;;;5030809;28;20048;-68
2022/12/23 05:56:59;;;;;;;49.53;37.30;;;;;;;;;;5030299;28;20052;-68
2022/12/23 06:00:04;;;;;;;49.80;37.53;;;12.00;99.90;;;;;;5029586;28;20044;-66
2022/12/23 06:03:16;;;;;;;49.55;37.60;;;;;;;;;;5030351;28;20044;-67
2022/12/23 06:06:21;;;;;;;53.70;38.53;;;;;;;;;;5030347;28;20044;-66
2022/12/23 06:09:25;;;;;;;52.65;38.17;;;;;;;;;;5030618;28;20052;-67
2022/12/23 06:12:30;;;;;;;48.05;36.35;;;;;;;;;;5030431;28;20378;-67
2022/12/23 06:15:34;;;;;;;53.17;36.30;;;;;;;;;;5030651;28;20064;-67
2022/12/23 06:18:38;;;;;;;53.40;38.28;;;12.30;99.90;;;;;;5030590;28;20048;-66
2022/12/23 06:21:42;;;;;;;54.42;38.22;;;;;;;;;;5031021;28;20040;-67
2022/12/23 06:24:47;;;;;;;51.33;37.95;;;12.30;99.90;;;;;;5030654;28;20040;-66
2022/12/23 06:27:50;;;;;;;57.58;38.58;;;12.30;99.90;;;;;;5030254;28;20049;-66
2022/12/23 06:30:55;;;;;;;45.72;33.55;;;12.40;99.90;;;;;;5030205;28;20056;-67
2022/12/23 06:34:00;;;;;;;43.92;32.70;;;;;;;;;;5041140;28;20044;-67
2022/12/23 06:37:04;;;;;;;47.45;33.40;;;;;;;;;;5030216;28;20037;-67
2022/12/23 06:40:09;;;;;;;45.38;32.53;;;12.90;99.90;;;;;;5034189;28;20113;-68
2022/12/23 06:43:13;;;;;;;42.28;31.85;;;;;;;;;;5034068;28;20060;-68
2022/12/23 06:46:17;;;;;;;49.60;32.70;;;;;;;;;;5033602;28;20500;-68
2022/12/23 06:49:21;;;;;;;44.42;31.10;;;;;;;;;;5033497;28;20064;-68
2022/12/23 06:52:26;;;;;;;45.83;29.83;;;12.40;99.90;;;;;;5032627;28;20056;-67
2022/12/23 06:55:31;;;;;;;53.17;32.55;;;;;;;;;;5033323;28;20049;-67
2022/12/23 06:58:35;;;;;;;45.05;31.63;;;;;;;;;;5033453;28;20048;-68
2022/12/23 07:01:40;;;;;;;53.30;32.83;;;;;;;;;;5033667;28;20052;-67
2022/12/23 07:04:44;;;;;;;49.78;33.65;;;;;;;;;;5033320;28;20036;-67
2022/12/23 07:07:48;;;;;;;58.08;34.08;;;;;;;;;;5033550;28;20048;-66
2022/12/23 07:11:00;;;;;;;54.38;32.95;;;12.30;99.90;;;;;;5033053;28;20056;-67
2022/12/23 07:14:04;;;;;;;55.97;30.88;;;12.40;99.90;;;;;;5033231;28;20044;-68
2022/12/23 07:17:08;;;;;;;50.28;30.77;;;11.50;99.90;;;;;;5033001;28;20516;-69
2022/12/23 07:20:13;;;;;;;54.35;31.05;;;10.30;99.90;;;;;;5033335;28;20064;-67
2022/12/23 07:23:17;;;;;;;50.92;32.05;;;13.80;99.90;;;;;;5033006;28;20053;-67
2022/12/23 07:26:21;;;;;;;51.35;31.75;;;12.70;99.90;;;;;;5032879;28;20060;-69
2022/12/23 07:29:24;;;;;;;51.40;29.27;;;12.70;99.90;;;;;;5032982;28;20182;-68
2022/12/23 07:32:29;;;;;;;62.22;30.17;;;13.20;99.90;;;;;;5033000;28;20044;-68
2022/12/23 07:35:33;;;;;;;44.78;27.30;;;12.90;99.90;;;;;;5032584;28;20064;-69
2022/12/23 07:38:36;;;;;;;51.22;27.35;;;12.90;99.90;;;;;;5032589;28;20052;-68
2022/12/23 07:41:40;;;;;;;43.90;29.40;;;13.10;99.90;;;;;;5032763;28;20036;-69
2022/12/23 07:44:44;;;;;;;43.00;28.13;;;13.10;99.90;;;;;;5032560;28;20048;-69
2022/12/23 07:47:56;;;;;;;51.22;28.02;;;13.20;99.90;;;;;;5032521;28;20044;-68
2022/12/23 07:51:02;;;;;;;56.03;28.30;;;13.30;99.90;;;;;;5031877;28;20061;-69
2022/12/23 07:54:05;;;;;;;55.70;28.25;;;13.30;99.90;;;;;;5032732;28;20037;-69
2022/12/23 07:57:09;;;;;;;63.83;30.10;;;13.30;99.90;;;;;;5032026;28;20401;-69
2022/12/23 08:00:14;;;;;;;60.97;31.02;;;13.40;99.90;;;;;;5032321;28;20403;-69
2022/12/23 08:03:18;;;;;;;56.33;32.10;;;13.40;99.90;;;;;;5032079;28;20044;-69
2022/12/23 08:06:23;;;;;;;51.53;30.15;;;13.40;99.90;;;;;;5032166;28;20397;-69
2022/12/23 08:09:27;;;;;;;46.90;30.67;;;13.40;99.90;;;;;;5031665;28;20405;-69
2022/12/23 08:12:31;;;;;;;57.63;31.65;;;13.40;99.90;;;;;;5031920;28;20535;-68
2022/12/23 08:15:35;;;;;;;60.65;30.95;;;13.50;99.90;;;;;;5032030;28;20160;-68
2022/12/23 08:18:40;;;;;;;52.30;31.27;;;13.50;99.90;;;;;;5031661;28;20393;-69
2022/12/23 08:21:44;;;;;;;54.40;31.40;;;13.50;99.90;;;;;;5031634;28;20048;-69
2022/12/23 08:24:48;;;;;;;48.08;29.40;;;13.50;99.90;;;;;;5031690;28;20041;-72
2022/12/23 08:27:52;;;;;;;46.35;28.10;;;13.70;99.90;;;;;;5031485;28;20068;-69
2022/12/23 08:31:07;;;;;;;46.58;26.25;;;14.00;99.90;;;;;;5031415;28;20053;-70
2022/12/23 08:34:11;;;;;;;49.97;28.20;;;14.30;99.90;;;;;;5032150;28;20207;-71
2022/12/23 08:37:15;;;;;;;41.53;25.65;;;14.60;99.90;;;;;;5031511;28;20392;-70
2022/12/23 08:40:19;;;;;;;40.42;23.33;;;14.70;99.90;;;;;;5031156;28;20040;-70
2022/12/23 08:43:23;;;;;;;45.05;28.23;;;14.90;99.90;;;;;;5031220;28;20448;-72
2022/12/23 08:46:27;;;;;;;42.22;27.40;;;15.10;99.90;;;;;;5031336;28;20048;-72
2022/12/23 08:49:32;;;;;;;59.45;31.52;;;15.20;99.90;;;;;;5031197;28;20421;-70
2022/12/23 08:52:36;;;;;;;43.15;28.48;;;15.00;99.90;;;;;;5031044;28;20152;-72
2022/12/23 08:55:44;;;;;;;43.25;28.25;;;14.90;99.90;;;;;;5030553;28;20036;-73
2022/12/23 08:58:51;;;;;;;51.97;28.85;;;14.90;99.90;;;;;;5030862;28;20374;-73
2022/12/23 09:01:58;;;;;;;42.38;28.65;;;15.00;99.90;;;;;;5028688;28;20496;-73
2022/12/23 09:05:02;;;;;;;46.45;27.55;;;15.20;99.90;;;;;;5031397;28;20052;-73
2022/12/23 09:08:06;;;;;;;46.63;27.60;;;15.50;99.90;;;;;;5030553;28;20041;-73
2022/12/23 09:11:19;;;;;;;42.55;27.83;;;15.70;99.90;;;;;;5041237;28;20056;-73
2022/12/23 09:14:23;;;;;;;40.90;26.47;;;15.90;99.90;;;;;;5030866;28;20036;-73
2022/12/23 09:17:28;;;;;;;38.20;24.23;;;16.10;99.90;;;;;;5030764;28;20048;-70
2022/12/23 09:20:32;;;;;;;34.78;22.23;;;16.20;99.90;;;;;;5030828;28;20045;-68
2022/12/23 09:23:35;;;;;;;35.72;23.77;;;16.40;99.90;;;;;;5031022;28;20072;-71
2022/12/23 09:26:40;;;;;;;35.30;23.05;;;16.70;99.90;;;;;;5030412;28;20044;-69
2022/12/23 09:29:44;;;;;;;34.15;23.45;;;16.80;99.90;;;;;;5030937;28;20048;-72
2022/12/23 09:32:48;;;;;;;37.13;23.23;;;16.80;99.90;;;;;;5029903;28;20056;-73
2022/12/23 09:35:52;;;;;;;33.35;22.67;;;16.70;99.90;;;;;;5030687;28;20657;-72
2022/12/23 09:38:57;;;;;;;38.08;23.08;;;16.90;99.90;;;;;;5029521;28;20052;-73
2022/12/23 09:42:04;;;;;;;37.33;22.63;;;17.20;99.90;;;;;;5030589;28;20052;-72
2022/12/23 09:45:11;;;;;;;30.73;19.30;;;17.50;99.90;;;;;;5030278;28;20049;-73
2022/12/23 09:48:24;;;;;;;31.77;16.58;;;17.70;99.90;;;;;;5030569;28;20090;-73
2022/12/23 09:51:29;;;;;;;32.10;16.50;;;17.80;99.90;;;;;;5030391;28;20057;-73
2022/12/23 09:54:47;;;;;;;29.90;17.67;;;17.90;99.90;;;;;;5030575;28;20044;-73
2022/12/23 09:58:02;;;;;;;37.58;19.10;;;18.00;99.90;;;;;;5030190;28;20311;-73
2022/12/23 10:01:42;;;;;;;40.78;23.95;;;18.10;99.90;;;;;;5030087;28;20045;-73
2022/12/23 10:05:17;;;;;;;37.08;21.90;;;18.40;99.90;;;;;;5025713;28;20052;-73
2022/12/23 10:08:33;;;;;;;39.08;22.10;;;18.30;99.90;;;;;;5029960;28;20065;-73
2022/12/23 10:11:42;;;;;;;42.80;22.83;;;18.10;99.90;;;;;;5030074;28;20508;-72
2022/12/23 10:15:07;;;;;;;37.97;22.48;;;18.00;99.90;;;;;;5034034;28;20044;-73
2022/12/23 10:18:21;;;;;;;40.75;23.35;;;18.10;99.90;;;;;;5032923;28;20053;-72
2022/12/23 10:21:38;;;;;;;36.70;22.23;;;18.10;99.90;;;;;;5034031;28;20052;-72
2022/12/23 10:24:44;;;;;;;36.85;22.13;;;18.10;99.90;;;;;;5033980;28;20052;-73
2022/12/23 10:27:49;;;;;;;33.40;22.10;;;18.10;99.90;;;;;;5033161;28;20045;-73
2022/12/23 10:31:03;;;;;;;32.45;20.60;;;18.10;99.90;;;;;;5033575;28;20057;-73
2022/12/23 10:34:23;;;;;;;33.40;21.63;;;18.10;99.90;;;;;;5033459;28;20049;-72
2022/12/23 10:38:06;;;;;;;45.08;22.65;;;18.20;99.90;;;;;;5033975;28;20052;-72
2022/12/23 10:41:28;;;;;;;42.03;20.02;;;18.40;99.90;;;;;;5033617;28;20060;-70
2022/12/23 10:44:31;;;;;;;;;;;18.50;99.90;;;;;;5033957;28;20068;-71
2022/12/23 10:47:46;;;;;;;39.92;19.50;;;18.60;99.90;;;;;;5032956;28;20396;-71
2022/12/23 10:51:00;;;;;;;34.50;20.00;;;18.80;99.90;;;;;;5033726;28;20056;-71
2022/12/23 10:54:16;;;;;;;40.58;18.98;;;18.90;99.90;;;;;;5033393;28;20057;-71
2022/12/23 10:57:22;;;;;;;33.17;16.45;;;19.00;99.90;;;;;;5032863;28;20060;-71
2022/12/23 11:00:26;;;;;;;37.95;16.13;;;19.10;99.90;;;;;;5033178;28;20108;-71
2022/12/23 11:03:41;;;;;;;36.30;13.73;;;19.10;99.90;;;;;;5033364;28;20045;-71
2022/12/23 11:06:49;;;;;;;25.88;12.27;;;19.10;99.90;;;;;;5032796;28;20393;-71
2022/12/23 11:10:02;;;;;;;25.88;11.75;;;19.00;99.90;;;;;;5032813;28;20064;-71
2022/12/23 11:13:06;;;;;;;29.83;12.35;;;19.00;99.90;;;;;;5031001;28;20516;-71
2022/12/23 11:16:14;;;;;;;33.83;12.45;;;19.00;99.90;;;;;;5032802;28;20409;-69
2022/12/23 11:19:18;;;;;;;38.75;12.50;;;19.00;99.90;;;;;;5032236;28;20056;-70
2022/12/23 11:22:24;;;;;;;32.70;11.90;;;19.00;99.90;;;;;;5032909;28;20067;-71
2022/12/23 11:25:32;;;;;;;37.88;19.02;;;19.10;99.90;;;;;;5031338;28;20033;-71
2022/12/23 11:28:47;;;;;;;35.28;14.25;;;19.20;99.90;;;;;;5032839;28;20101;-72
2022/12/23 11:31:51;;;;;;;28.98;13.35;;;19.10;99.90;;;;;;5032583;28;20056;-72
2022/12/23 11:34:55;;;;;;;29.48;10.93;;;19.10;99.90;;;;;;5032704;28;20493;-71
2022/12/23 11:38:01;;;;;;;29.33;12.55;;;19.00;99.90;;;;;;5033093;28;20048;-71
2022/12/23 11:41:06;;;;;;;21.55;10.63;;;19.00;99.90;;;;;;5043182;28;20048;-70
2022/12/23 11:44:10;;;;;;;23.77;11.68;;;18.90;99.90;;;;;;5031966;28;20052;-71
2022/12/23 11:47:19;;;;;;;26.77;9.80;;;18.80;99.90;;;;;;5032393;28;20048;-70
2022/12/23 11:50:31;;;;;;;22.15;8.55;;;18.70;99.90;;;;;;5031369;28;20068;-71
2022/12/23 11:53:35;;;;;;;14.98;7.60;;;18.70;99.90;;;;;;5032399;28;20036;-70
2022/12/23 11:56:40;;;;;;;24.73;7.10;;;18.60;99.90;;;;;;5031929;28;20060;-69
2022/12/23 11:59:49;;;;;;;21.40;7.78;;;18.60;99.90;;;;;;5032435;28;20049;-71
2022/12/23 12:03:02;;;;;;;22.08;7.68;;;18.50;99.90;;;;;;5033204;28;20052;-69
2022/12/23 12:06:06;;;;;;;17.25;6.60;;;18.50;99.90;;;;;;5032040;28;20074;-69
2022/12/23 12:09:12;;;;;;;17.80;5.60;;;18.40;99.90;;;;;;5031971;28;20592;-69
2022/12/23 12:12:19;;;;;;;12.65;5.63;;;18.40;99.90;;;;;;5032241;28;20060;-69
2022/12/23 12:15:35;;;;;;;12.13;5.07;;;18.40;99.90;;;;;;5032300;28;20064;-69
2022/12/23 12:18:41;;;;;;;26.27;7.35;;;18.30;99.90;;;;;;5031789;28;20408;-69
2022/12/23 12:21:48;;;;;;;25.27;7.30;;;18.30;99.90;;;;;;5031952;28;20220;-69
2022/12/23 12:24:56;;;;;;;12.73;4.95;;;18.30;99.90;;;;;;5031476;28;20068;-69
2022/12/23 12:28:03;;;;;;;7.10;4.57;;;18.20;99.90;;;;;;5031856;28;20044;-70
2022/12/23 12:31:20;;;;;;;9.45;4.10;;;18.20;99.90;;;;;;5031112;28;20060;-69
2022/12/23 12:34:40;;;;;;;12.05;4.80;;;18.10;99.90;;;;;;5031859;28;20049;-69
2022/12/23 12:37:50;;;;;;;11.95;4.78;;;18.10;99.90;;;;;;5031168;28;20291;-69
2022/12/23 12:41:04;;;;;;;18.95;5.90;;;18.00;99.90;;;;;;5031242;28;20040;-69
2022/12/23 12:44:14;;;;;;;9.82;4.25;;;18.10;99.90;;;;;;5031718;28;20072;-69
2022/12/23 12:47:27;;;;;;;19.13;5.93;;;18.00;99.90;;;;;;5031280;28;20040;-69
2022/12/23 12:50:40;;;;;;;18.25;4.57;;;18.00;99.90;;;;;;5031489;28;20048;-69
2022/12/23 12:54:05;;;;;;;9.25;3.95;;;17.90;99.90;;;;;;5031388;28;20040;-69
2022/12/23 12:57:16;;;;;;;11.65;4.72;;;17.90;99.90;;;;;;5031188;28;20068;-68
2022/12/23 13:00:22;;;;;;;15.52;5.13;;;17.80;99.90;;;;;;5031291;28;20048;-68
2022/12/23 13:03:38;;;;;;;11.57;5.10;;;17.80;99.90;;;;;;5031000;28;20048;-69
2022/12/23 13:07:00;;;;;;;11.90;4.70;;;17.80;99.90;;;;;;5031018;28;20064;-69
2022/12/23 13:10:40;;;;;;;12.98;4.20;;;17.80;99.90;;;;;;5031159;28;20405;-69
2022/12/23 13:13:50;;;;;;;10.13;3.75;;;17.70;99.90;;;;;;5030831;28;20295;-69
2022/12/23 13:17:23;;;;;;;14.48;4.55;;;17.70;99.90;;;;;;5029780;28;20092;-69
2022/12/23 13:20:44;;;;;;;7.45;3.95;;;17.70;99.90;;;;;;5031265;28;20504;-69
2022/12/23 13:23:50;;;;;;;17.88;4.80;;;17.60;99.90;;;;;;5030724;28;20283;-68
2022/12/23 13:27:09;;;;;;;13.25;5.63;;;17.60;99.90;;;;;;5031024;28;20048;-70
2022/12/23 13:30:17;;;;;;;10.75;5.47;;;17.60;99.90;;;;;;5030138;28;20064;-69
2022/12/23 13:33:35;;;;;;;16.98;6.97;;;17.60;99.90;;;;;;5030845;28;20516;-70
2022/12/23 13:36:42;;;;;;;16.70;7.20;;;17.50;99.90;;;;;;5030490;28;20507;-69
2022/12/23 13:40:07;;;;;;;11.07;5.40;;;17.50;99.90;;;;;;5030887;28;20056;-69
2022/12/23 13:43:38;;;;;;;12.25;5.47;;;17.40;99.80;;;;;;5030584;28;20052;-71
2022/12/23 13:46:54;;;;;;;13.00;5.22;;;17.40;99.70;;;;;;5030015;28;20040;-68
2022/12/23 13:50:04;;;;;;;13.93;5.78;;;17.30;99.90;;;;;;5034837;28;20627;-67
2022/12/23 13:53:32;;;;;;;18.23;7.43;;;17.30;99.90;;;;;;5034777;28;20052;-69
2022/12/23 13:56:52;;;;;;;11.52;6.15;;;17.30;99.90;;;;;;5033969;28;20060;-69
2022/12/23 14:00:15;;;;;;;11.67;5.40;;;17.30;99.90;;;;;;5033666;28;20300;-69
2022/12/23 14:03:24;;;;;;;13.35;6.30;;;17.20;99.90;;;;;;5034121;28;20041;-69
2022/12/23 14:06:42;;;;;;;16.15;6.88;;;17.20;99.90;;;;;;5034502;28;20392;-69
2022/12/23 14:09:55;;;;;;;19.35;7.30;;;17.10;99.90;;;;;;5034298;28;20413;-69
2022/12/23 14:13:06;;;;;;;15.93;6.70;;;17.10;99.90;;;;;;5034051;28;20060;-69
2022/12/23 14:16:18;;;;;;;19.17;7.13;;;17.10;99.90;;;;;;5034502;28;20040;-68
2022/12/23 14:19:43;;;;;;;24.77;6.78;;;17.00;99.90;;;;;;5034117;28;20045;-70
2022/12/23 14:23:00;;;;;;;20.13;7.45;;;17.00;99.90;;;;;;5033844;28;20044;-68
2022/12/23 14:26:31;;;;;;;14.43;6.30;;;17.00;99.90;;;;;;5034114;28;20048;-70
2022/12/23 14:29:54;;;;;;;;;;;16.90;99.90;;;;;;5034505;28;20508;-68
2022/12/23 14:33:00;;;;;;;16.05;6.03;;;16.90;99.90;;;;;;5033771;28;19917;-70
2022/12/23 14:36:25;;;;;;;19.90;7.03;;;16.90;99.90;;;;;;5033995;28;20048;-70
2022/12/23 14:39:32;;;;;;;18.08;6.80;;;16.80;99.90;;;;;;5033909;28;20053;-68
2022/12/23 14:42:41;;;;;;;17.90;6.95;;;16.90;99.90;;;;;;5033765;28;20048;-68
2022/12/23 14:45:46;;;;;;;17.83;6.25;;;16.80;99.90;;;;;;5033684;28;20236;-69
2022/12/23 14:48:50;;;;;;;16.77;6.13;;;16.70;99.90;;;;;;5033829;28;20052;-69
2022/12/23 14:51:54;;;;;;;15.98;7.38;;;16.70;99.90;;;;;;5033318;28;20060;-69
2022/12/23 14:55:21;;;;;;;21.17;7.35;;;16.70;99.90;;;;;;5033374;28;20500;-69
2022/12/23 14:58:37;;;;;;;27.33;9.68;;;16.60;99.90;;;;;;5033562;28;20064;-68
2022/12/23 15:01:54;;;;;;;17.52;7.75;;;16.60;99.90;;;;;;5033265;28;20508;-68
2022/12/23 15:04:59;;;;;;;21.77;7.60;;;16.50;99.90;;;;;;5032854;28;20048;-68
2022/12/23 15:08:03;;;;;;;19.85;8.20;;;16.50;99.90;;;;;;5033053;28;20508;-68
2022/12/23 15:11:24;;;;;;;16.65;7.05;;;16.50;99.90;;;;;;5033136;28;20057;-71
2022/12/23 15:14:34;;;;;;;20.40;8.00;;;16.40;99.90;;;;;;5032942;28;20504;-69
2022/12/23 15:17:38;;;;;;;23.80;9.23;;;16.40;99.90;;;;;;5033391;28;20048;-71
2022/12/23 15:20:43;;;;;;;23.30;10.80;;;16.40;99.90;;;;;;5033053;28;20401;-70
2022/12/23 15:23:49;;;;;;;29.42;13.38;;;16.30;99.90;;;;;;5032903;28;20045;-72
2022/12/23 15:26:52;;;;;;;40.90;17.70;;;16.30;99.90;;;;;;5032684;28;20132;-69
2022/12/23 15:29:57;;;;;;;44.45;19.17;;;16.20;99.90;;;;;;5032435;28;20612;-72
2022/12/23 15:33:06;;;;;;;38.33;17.40;;;16.10;99.90;;;;;;5032329;28;20125;-72
2022/12/23 15:36:10;;;;;;;31.85;13.60;;;16.10;99.90;;;;;;5032231;28;20052;-70
2022/12/23 15:39:34;;;;;;;49.35;19.65;;;16.10;99.90;;;;;;5032391;28;20094;-73
2022/12/23 15:42:45;;;;;;;49.47;20.30;;;16.00;99.90;;;;;;5032694;28;20068;-72
2022/12/23 15:45:50;;;;;;;41.35;17.25;;;16.00;99.90;;;;;;5042603;28;20045;-72
2022/12/23 15:48:55;;;;;;;55.00;21.98;;;16.00;99.90;;;;;;5032194;28;20044;-72
2022/12/23 15:52:03;;;;;;;49.20;15.48;;;15.90;99.90;;;;;;5032018;28;20052;-74
2022/12/23 15:55:35;;;;;;;33.85;11.88;;;15.90;99.90;;;;;;5031994;28;20056;-76
2022/12/23 15:58:41;;;;;;;36.50;12.43;;;15.80;99.90;;;;;;5031017;28;20551;-71
2022/12/23 16:01:45;;;;;;;52.15;14.82;;;15.70;99.90;;;;;;5030906;28;20044;-69
2022/12/23 16:04:55;;;;;;;45.83;17.42;;;15.70;99.90;;;;;;5031523;28;20386;-69
2022/12/23 16:08:17;;;;;;;54.90;20.27;;;15.60;99.90;;;;;;5031708;28;20049;-69
2022/12/23 16:11:21;;;;;;;63.28;23.23;;;15.40;99.90;;;;;;5031251;28;20072;-70
2022/12/23 16:14:38;;;;;;;53.92;22.52;;;15.40;99.90;;;;;;5030743;28;20045;-73
2022/12/23 16:17:41;;;;;;;63.85;21.98;;;15.30;99.90;;;;;;5031673;28;20060;-71
2022/12/23 16:20:58;;;;;;;60.60;20.40;;;15.30;99.90;;;;;;5031758;28;20040;-70
2022/12/23 16:24:07;;;;;;;52.03;19.95;;;15.20;99.90;;;;;;5031554;28;20124;-70
2022/12/23 16:27:17;;;;;;;51.05;17.98;;;15.10;99.90;;;;;;5042213;28;20040;-72
2022/12/23 16:30:30;;;;;;;49.30;15.43;;;15.10;99.90;;;;;;5031411;28;20428;-72
2022/12/23 16:33:58;;;;;;;76.03;34.28;;;15.00;99.90;;;;;;5031218;28;20053;-69
2022/12/23 16:37:01;;;;;;;80.47;38.17;;;15.00;99.90;;;;;;5031517;28;20064;-72
2022/12/23 16:40:13;;;;;;;70.65;33.85;;;15.00;99.90;;;;;;5031399;28;20040;-69
2022/12/23 16:43:18;;;;;;;62.00;35.20;;;15.00;99.90;;;;;;5031068;28;20052;-71
2022/12/23 16:46:23;;;;;;;79.55;41.20;;;15.00;99.90;;;;;;5030986;28;20401;-71
2022/12/23 16:49:29;;;;;;;79.75;45.40;;;15.00;99.90;;;;;;5031119;28;20571;-72